sensor_id;sensor_type;location;lat;lon;timestamp;P1;durP1;ratioP1;P2;durP2;ratioP2
71127;SDS011;59249;59.736;30.568;2023-12-29T00:02:03;4.25;;;1.10;;
71127;SDS011;59249;59.736;30.568;2023-12-29T00:04:32;4.85;;;1.10;;
71127;SDS011;59249;59.736;30.568;2023-12-29T00:07:01;4.72;;;1.05;;
71127;SDS011;59249;59.736;30.568;2023-12-29T00:09:31;5.83;;;1.23;;
71127;SDS011;59249;59.736;30.568;2023-12-29T00:12:08;4.63;;;1.10;;
71127;SDS011;59249;59.736;30.568;2023-12-29T00:14:39;4.13;;;0.98;;
71127;SDS011;59249;59.736;30.568;2023-12-29T00:17:10;5.38;;;1.23;;
71127;SDS011;59249;59.736;30.568;2023-12-29T00:19:39;5.22;;;1.10;;
71127;SDS011;59249;59.736;30.568;2023-12-29T00:22:09;5.07;;;1.17;;
71127;SDS011;59249;59.736;30.568;2023-12-29T00:24:38;5.18;;;0.88;;
71127;SDS011;59249;59.736;30.568;2023-12-29T00:27:07;4.35;;;1.50;;
71127;SDS011;59249;59.736;30.568;2023-12-29T00:29:37;6.40;;;1.67;;
71127;SDS011;59249;59.736;30.568;2023-12-29T00:32:08;8.23;;;2.05;;
71127;SDS011;59249;59.736;30.568;2023-12-29T00:34:37;5.63;;;1.37;;
71127;SDS011;59249;59.736;30.568;2023-12-29T00:37:06;6.75;;;2.10;;
71127;SDS011;59249;59.736;30.568;2023-12-29T00:39:36;6.65;;;2.10;;
71127;SDS011;59249;59.736;30.568;2023-12-29T00:42:07;10.85;;;3.17;;
71127;SDS011;59249;59.736;30.568;2023-12-29T00:44:36;13.82;;;4.40;;
71127;SDS011;59249;59.736;30.568;2023-12-29T00:47:05;12.93;;;4.50;;
71127;SDS011;59249;59.736;30.568;2023-12-29T00:49:37;17.52;;;4.65;;
71127;SDS011;59249;59.736;30.568;2023-12-29T00:52:09;12.80;;;4.25;;
71127;SDS011;59249;59.736;30.568;2023-12-29T00:54:39;11.35;;;3.50;;
71127;SDS011;59249;59.736;30.568;2023-12-29T00:57:11;15.82;;;4.55;;
71127;SDS011;59249;59.736;30.568;2023-12-29T00:59:42;13.07;;;4.30;;
71127;SDS011;59249;59.736;30.568;2023-12-29T01:02:16;13.35;;;3.90;;
71127;SDS011;59249;59.736;30.568;2023-12-29T01:04:50;11.57;;;4.50;;
71127;SDS011;59249;59.736;30.568;2023-12-29T01:07:19;13.32;;;5.03;;
71127;SDS011;59249;59.736;30.568;2023-12-29T01:09:48;16.77;;;5.22;;
71127;SDS011;59249;59.736;30.568;2023-12-29T01:12:23;13.97;;;4.63;;
71127;SDS011;59249;59.736;30.568;2023-12-29T01:15:06;12.27;;;4.40;;
71127;SDS011;59249;59.736;30.568;2023-12-29T01:17:51;13.20;;;4.35;;
71127;SDS011;59249;59.736;30.568;2023-12-29T01:20:34;14.93;;;4.63;;
71127;SDS011;59249;59.736;30.568;2023-12-29T01:23:18;18.38;;;5.28;;
71127;SDS011;59249;59.736;30.568;2023-12-29T01:25:50;16.73;;;6.07;;
71127;SDS011;59249;59.736;30.568;2023-12-29T01:28:24;13.60;;;5.28;;
71127;SDS011;59249;59.736;30.568;2023-12-29T01:31:12;11.85;;;4.70;;
71127;SDS011;59249;59.736;30.568;2023-12-29T01:33:49;18.58;;;5.88;;
71127;SDS011;59249;59.736;30.568;2023-12-29T01:36:28;19.15;;;5.72;;
71127;SDS011;59249;59.736;30.568;2023-12-29T01:38:58;12.77;;;4.13;;
71127;SDS011;59249;59.736;30.568;2023-12-29T01:41:29;13.52;;;5.30;;
71127;SDS011;59249;59.736;30.568;2023-12-29T01:44:18;17.92;;;5.88;;
71127;SDS011;59249;59.736;30.568;2023-12-29T01:46:53;14.95;;;5.40;;
71127;SDS011;59249;59.736;30.568;2023-12-29T01:49:29;15.25;;;5.82;;
71127;SDS011;59249;59.736;30.568;2023-12-29T01:52:00;14.03;;;5.60;;
71127;SDS011;59249;59.736;30.568;2023-12-29T01:54:34;14.98;;;6.35;;
71127;SDS011;59249;59.736;30.568;2023-12-29T01:57:12;15.63;;;5.30;;
71127;SDS011;59249;59.736;30.568;2023-12-29T01:59:49;15.13;;;5.82;;
71127;SDS011;59249;59.736;30.568;2023-12-29T02:02:25;10.65;;;3.88;;
71127;SDS011;59249;59.736;30.568;2023-12-29T02:05:04;9.33;;;2.70;;
71127;SDS011;59249;59.736;30.568;2023-12-29T02:07:43;13.10;;;4.40;;
71127;SDS011;59249;59.736;30.568;2023-12-29T02:10:12;12.57;;;4.82;;
71127;SDS011;59249;59.736;30.568;2023-12-29T02:12:44;14.90;;;5.13;;
71127;SDS011;59249;59.736;30.568;2023-12-29T02:15:15;14.43;;;5.03;;
71127;SDS011;59249;59.736;30.568;2023-12-29T02:17:45;14.30;;;5.10;;
71127;SDS011;59249;59.736;30.568;2023-12-29T02:20:25;15.52;;;4.57;;
71127;SDS011;59249;59.736;30.568;2023-12-29T02:23:12;13.27;;;4.65;;
71127;SDS011;59249;59.736;30.568;2023-12-29T02:25:53;14.73;;;4.40;;
71127;SDS011;59249;59.736;30.568;2023-12-29T02:28:34;16.17;;;6.00;;
71127;SDS011;59249;59.736;30.568;2023-12-29T02:31:16;14.40;;;5.07;;
71127;SDS011;59249;59.736;30.568;2023-12-29T02:33:53;15.32;;;5.10;;
71127;SDS011;59249;59.736;30.568;2023-12-29T02:36:28;16.58;;;6.18;;
71127;SDS011;59249;59.736;30.568;2023-12-29T02:39:01;13.45;;;4.82;;
71127;SDS011;59249;59.736;30.568;2023-12-29T02:41:54;15.52;;;5.20;;
71127;SDS011;59249;59.736;30.568;2023-12-29T02:44:30;11.37;;;4.50;;
71127;SDS011;59249;59.736;30.568;2023-12-29T02:47:10;13.63;;;4.40;;
71127;SDS011;59249;59.736;30.568;2023-12-29T02:49:39;11.90;;;3.90;;
71127;SDS011;59249;59.736;30.568;2023-12-29T02:52:08;13.55;;;3.70;;
71127;SDS011;59249;59.736;30.568;2023-12-29T02:54:37;12.90;;;4.90;;
71127;SDS011;59249;59.736;30.568;2023-12-29T02:57:08;9.10;;;2.97;;
71127;SDS011;59249;59.736;30.568;2023-12-29T02:59:37;14.38;;;4.47;;
71127;SDS011;59249;59.736;30.568;2023-12-29T03:02:06;12.40;;;3.45;;
71127;SDS011;59249;59.736;30.568;2023-12-29T03:04:35;11.85;;;4.22;;
71127;SDS011;59249;59.736;30.568;2023-12-29T03:07:04;9.27;;;3.75;;
71127;SDS011;59249;59.736;30.568;2023-12-29T03:09:33;12.03;;;3.70;;
71127;SDS011;59249;59.736;30.568;2023-12-29T03:12:03;11.25;;;3.78;;
71127;SDS011;59249;59.736;30.568;2023-12-29T03:14:35;11.55;;;3.28;;
71127;SDS011;59249;59.736;30.568;2023-12-29T03:17:04;11.70;;;3.17;;
71127;SDS011;59249;59.736;30.568;2023-12-29T03:19:33;10.43;;;3.28;;
71127;SDS011;59249;59.736;30.568;2023-12-29T03:22:02;8.73;;;2.63;;
71127;SDS011;59249;59.736;30.568;2023-12-29T03:24:32;10.63;;;2.97;;
71127;SDS011;59249;59.736;30.568;2023-12-29T03:27:02;9.65;;;3.00;;
71127;SDS011;59249;59.736;30.568;2023-12-29T03:29:31;9.10;;;3.13;;
71127;SDS011;59249;59.736;30.568;2023-12-29T03:32:02;11.10;;;3.45;;
71127;SDS011;59249;59.736;30.568;2023-12-29T03:34:33;8.93;;;3.00;;
71127;SDS011;59249;59.736;30.568;2023-12-29T03:37:03;5.55;;;1.55;;
71127;SDS011;59249;59.736;30.568;2023-12-29T03:39:33;9.52;;;2.65;;
71127;SDS011;59249;59.736;30.568;2023-12-29T03:42:04;9.18;;;2.80;;
71127;SDS011;59249;59.736;30.568;2023-12-29T03:44:33;11.18;;;3.30;;
71127;SDS011;59249;59.736;30.568;2023-12-29T03:47:04;10.13;;;2.90;;
71127;SDS011;59249;59.736;30.568;2023-12-29T03:49:35;7.68;;;2.53;;
71127;SDS011;59249;59.736;30.568;2023-12-29T03:52:05;8.07;;;2.42;;
71127;SDS011;59249;59.736;30.568;2023-12-29T03:54:34;10.18;;;2.97;;
71127;SDS011;59249;59.736;30.568;2023-12-29T03:57:13;7.00;;;2.17;;
71127;SDS011;59249;59.736;30.568;2023-12-29T03:59:42;8.40;;;2.30;;
71127;SDS011;59249;59.736;30.568;2023-12-29T04:02:12;10.40;;;3.50;;
71127;SDS011;59249;59.736;30.568;2023-12-29T04:04:41;9.68;;;2.80;;
71127;SDS011;59249;59.736;30.568;2023-12-29T04:07:11;10.15;;;2.40;;
71127;SDS011;59249;59.736;30.568;2023-12-29T04:09:39;8.63;;;2.75;;
71127;SDS011;59249;59.736;30.568;2023-12-29T04:12:08;6.37;;;2.63;;
71127;SDS011;59249;59.736;30.568;2023-12-29T04:14:37;8.60;;;2.30;;
71127;SDS011;59249;59.736;30.568;2023-12-29T04:17:06;7.75;;;2.28;;
71127;SDS011;59249;59.736;30.568;2023-12-29T04:19:42;6.93;;;1.95;;
71127;SDS011;59249;59.736;30.568;2023-12-29T04:22:12;7.35;;;1.48;;
71127;SDS011;59249;59.736;30.568;2023-12-29T04:24:41;6.67;;;1.73;;
71127;SDS011;59249;59.736;30.568;2023-12-29T04:27:10;6.72;;;1.67;;
71127;SDS011;59249;59.736;30.568;2023-12-29T04:29:45;7.95;;;1.90;;
71127;SDS011;59249;59.736;30.568;2023-12-29T04:32:22;7.45;;;2.40;;
71127;SDS011;59249;59.736;30.568;2023-12-29T04:34:55;7.70;;;2.13;;
71127;SDS011;59249;59.736;30.568;2023-12-29T04:37:37;7.57;;;2.03;;
71127;SDS011;59249;59.736;30.568;2023-12-29T04:40:14;7.47;;;2.38;;
71127;SDS011;59249;59.736;30.568;2023-12-29T04:42:45;8.65;;;2.20;;
71127;SDS011;59249;59.736;30.568;2023-12-29T04:45:15;5.43;;;1.35;;
71127;SDS011;59249;59.736;30.568;2023-12-29T04:47:44;7.28;;;2.05;;
71127;SDS011;59249;59.736;30.568;2023-12-29T04:50:14;5.60;;;1.87;;
71127;SDS011;59249;59.736;30.568;2023-12-29T04:52:44;7.85;;;1.75;;
71127;SDS011;59249;59.736;30.568;2023-12-29T04:55:12;7.10;;;1.98;;
71127;SDS011;59249;59.736;30.568;2023-12-29T04:57:42;7.05;;;2.30;;
71127;SDS011;59249;59.736;30.568;2023-12-29T05:00:11;7.55;;;2.47;;
71127;SDS011;59249;59.736;30.568;2023-12-29T05:02:43;6.23;;;1.73;;
71127;SDS011;59249;59.736;30.568;2023-12-29T05:05:12;6.70;;;1.60;;
71127;SDS011;59249;59.736;30.568;2023-12-29T05:07:42;4.50;;;1.33;;
71127;SDS011;59249;59.736;30.568;2023-12-29T05:10:11;9.73;;;2.72;;
71127;SDS011;59249;59.736;30.568;2023-12-29T05:12:40;8.85;;;2.15;;
71127;SDS011;59249;59.736;30.568;2023-12-29T05:15:09;6.00;;;1.53;;
71127;SDS011;59249;59.736;30.568;2023-12-29T05:17:38;6.70;;;1.80;;
71127;SDS011;59249;59.736;30.568;2023-12-29T05:20:08;5.57;;;1.50;;
71127;SDS011;59249;59.736;30.568;2023-12-29T05:22:39;6.90;;;2.15;;
71127;SDS011;59249;59.736;30.568;2023-12-29T05:25:10;6.32;;;2.10;;
71127;SDS011;59249;59.736;30.568;2023-12-29T05:27:44;5.87;;;1.53;;
71127;SDS011;59249;59.736;30.568;2023-12-29T05:33:27;6.05;;;1.65;;
71127;SDS011;59249;59.736;30.568;2023-12-29T05:36:08;5.22;;;1.60;;
71127;SDS011;59249;59.736;30.568;2023-12-29T05:38:40;7.10;;;2.00;;
71127;SDS011;59249;59.736;30.568;2023-12-29T05:41:15;6.03;;;1.87;;
71127;SDS011;59249;59.736;30.568;2023-12-29T05:43:47;4.82;;;1.35;;
71127;SDS011;59249;59.736;30.568;2023-12-29T05:46:29;5.82;;;1.77;;
71127;SDS011;59249;59.736;30.568;2023-12-29T05:49:18;6.65;;;1.73;;
71127;SDS011;59249;59.736;30.568;2023-12-29T05:52:00;5.13;;;1.63;;
71127;SDS011;59249;59.736;30.568;2023-12-29T05:54:40;6.13;;;1.60;;
71127;SDS011;59249;59.736;30.568;2023-12-29T05:57:17;5.47;;;1.67;;
71127;SDS011;59249;59.736;30.568;2023-12-29T05:59:47;5.35;;;1.65;;
71127;SDS011;59249;59.736;30.568;2023-12-29T06:02:16;7.05;;;2.05;;
71127;SDS011;59249;59.736;30.568;2023-12-29T06:04:46;8.05;;;1.83;;
71127;SDS011;59249;59.736;30.568;2023-12-29T06:07:15;7.77;;;1.90;;
71127;SDS011;59249;59.736;30.568;2023-12-29T06:09:45;10.95;;;1.85;;
71127;SDS011;59249;59.736;30.568;2023-12-29T06:12:46;6.97;;;1.77;;
71127;SDS011;59249;59.736;30.568;2023-12-29T06:15:24;8.73;;;1.73;;
71127;SDS011;59249;59.736;30.568;2023-12-29T06:17:54;5.72;;;1.70;;
71127;SDS011;59249;59.736;30.568;2023-12-29T06:20:34;5.80;;;1.77;;
71127;SDS011;59249;59.736;30.568;2023-12-29T06:23:04;6.38;;;1.95;;
71127;SDS011;59249;59.736;30.568;2023-12-29T06:25:33;8.60;;;2.20;;
71127;SDS011;59249;59.736;30.568;2023-12-29T06:28:06;6.22;;;2.08;;
71127;SDS011;59249;59.736;30.568;2023-12-29T06:30:36;7.72;;;1.77;;
71127;SDS011;59249;59.736;30.568;2023-12-29T06:33:05;4.93;;;1.47;;
71127;SDS011;59249;59.736;30.568;2023-12-29T06:35:35;4.40;;;1.83;;
71127;SDS011;59249;59.736;30.568;2023-12-29T06:38:07;6.68;;;1.50;;
71127;SDS011;59249;59.736;30.568;2023-12-29T06:40:38;6.22;;;1.80;;
71127;SDS011;59249;59.736;30.568;2023-12-29T06:43:13;7.28;;;1.80;;
71127;SDS011;59249;59.736;30.568;2023-12-29T06:45:42;8.47;;;2.67;;
71127;SDS011;59249;59.736;30.568;2023-12-29T06:48:12;5.95;;;2.10;;
71127;SDS011;59249;59.736;30.568;2023-12-29T06:50:58;6.50;;;2.20;;
71127;SDS011;59249;59.736;30.568;2023-12-29T06:53:35;5.05;;;1.80;;
71127;SDS011;59249;59.736;30.568;2023-12-29T06:56:12;6.65;;;1.90;;
71127;SDS011;59249;59.736;30.568;2023-12-29T06:58:44;6.73;;;1.60;;
71127;SDS011;59249;59.736;30.568;2023-12-29T07:01:13;7.28;;;2.30;;
71127;SDS011;59249;59.736;30.568;2023-12-29T07:03:43;6.85;;;2.40;;
71127;SDS011;59249;59.736;30.568;2023-12-29T07:06:12;7.22;;;2.58;;
71127;SDS011;59249;59.736;30.568;2023-12-29T07:08:41;5.18;;;1.95;;
71127;SDS011;59249;59.736;30.568;2023-12-29T07:11:11;8.97;;;2.30;;
71127;SDS011;59249;59.736;30.568;2023-12-29T07:13:41;8.90;;;2.45;;
71127;SDS011;59249;59.736;30.568;2023-12-29T07:16:23;4.47;;;1.63;;
71127;SDS011;59249;59.736;30.568;2023-12-29T07:18:58;5.57;;;1.65;;
71127;SDS011;59249;59.736;30.568;2023-12-29T07:21:32;5.72;;;1.70;;
71127;SDS011;59249;59.736;30.568;2023-12-29T07:24:04;4.53;;;1.30;;
71127;SDS011;59249;59.736;30.568;2023-12-29T07:26:38;8.45;;;1.63;;
71127;SDS011;59249;59.736;30.568;2023-12-29T07:29:08;5.55;;;1.52;;
71127;SDS011;59249;59.736;30.568;2023-12-29T07:31:39;6.90;;;1.35;;
71127;SDS011;59249;59.736;30.568;2023-12-29T07:34:09;4.78;;;1.17;;
71127;SDS011;59249;59.736;30.568;2023-12-29T07:36:38;5.80;;;1.63;;
71127;SDS011;59249;59.736;30.568;2023-12-29T07:39:08;8.68;;;2.30;;
71127;SDS011;59249;59.736;30.568;2023-12-29T07:41:41;8.20;;;2.60;;
71127;SDS011;59249;59.736;30.568;2023-12-29T07:44:10;8.57;;;2.17;;
71127;SDS011;59249;59.736;30.568;2023-12-29T07:46:44;7.00;;;1.88;;
71127;SDS011;59249;59.736;30.568;2023-12-29T07:49:15;6.43;;;2.00;;
71127;SDS011;59249;59.736;30.568;2023-12-29T07:51:54;6.18;;;2.15;;
71127;SDS011;59249;59.736;30.568;2023-12-29T07:54:26;8.13;;;2.35;;
71127;SDS011;59249;59.736;30.568;2023-12-29T07:56:56;6.88;;;1.80;;
71127;SDS011;59249;59.736;30.568;2023-12-29T07:59:27;9.55;;;2.35;;
71127;SDS011;59249;59.736;30.568;2023-12-29T08:01:58;9.33;;;2.70;;
71127;SDS011;59249;59.736;30.568;2023-12-29T08:04:28;9.23;;;2.60;;
71127;SDS011;59249;59.736;30.568;2023-12-29T08:07:06;8.40;;;2.22;;
71127;SDS011;59249;59.736;30.568;2023-12-29T08:09:46;7.93;;;2.45;;
71127;SDS011;59249;59.736;30.568;2023-12-29T08:12:17;8.48;;;2.35;;
71127;SDS011;59249;59.736;30.568;2023-12-29T08:14:46;8.43;;;2.73;;
71127;SDS011;59249;59.736;30.568;2023-12-29T08:17:17;8.70;;;2.72;;
71127;SDS011;59249;59.736;30.568;2023-12-29T08:19:46;9.05;;;2.75;;
71127;SDS011;59249;59.736;30.568;2023-12-29T08:22:15;11.68;;;2.65;;
71127;SDS011;59249;59.736;30.568;2023-12-29T08:24:43;7.10;;;2.08;;
71127;SDS011;59249;59.736;30.568;2023-12-29T08:27:22;10.00;;;2.93;;
71127;SDS011;59249;59.736;30.568;2023-12-29T08:29:58;7.32;;;2.92;;
71127;SDS011;59249;59.736;30.568;2023-12-29T08:32:36;8.65;;;2.60;;
71127;SDS011;59249;59.736;30.568;2023-12-29T08:35:24;6.13;;;1.92;;
71127;SDS011;59249;59.736;30.568;2023-12-29T08:37:56;7.68;;;2.25;;
71127;SDS011;59249;59.736;30.568;2023-12-29T08:40:34;8.80;;;2.00;;
71127;SDS011;59249;59.736;30.568;2023-12-29T08:43:18;8.88;;;2.85;;
71127;SDS011;59249;59.736;30.568;2023-12-29T08:45:48;7.90;;;2.60;;
71127;SDS011;59249;59.736;30.568;2023-12-29T08:48:19;7.60;;;2.47;;
71127;SDS011;59249;59.736;30.568;2023-12-29T08:50:49;8.38;;;1.95;;
71127;SDS011;59249;59.736;30.568;2023-12-29T08:53:21;7.00;;;2.53;;
71127;SDS011;59249;59.736;30.568;2023-12-29T08:55:51;7.85;;;2.67;;
71127;SDS011;59249;59.736;30.568;2023-12-29T08:58:20;10.23;;;2.85;;
71127;SDS011;59249;59.736;30.568;2023-12-29T09:00:49;10.82;;;2.55;;
71127;SDS011;59249;59.736;30.568;2023-12-29T09:03:20;10.98;;;2.65;;
71127;SDS011;59249;59.736;30.568;2023-12-29T09:05:53;5.40;;;1.50;;
71127;SDS011;59249;59.736;30.568;2023-12-29T09:08:36;9.05;;;2.42;;
71127;SDS011;59249;59.736;30.568;2023-12-29T09:11:05;9.10;;;2.65;;
71127;SDS011;59249;59.736;30.568;2023-12-29T09:13:42;9.48;;;3.38;;
71127;SDS011;59249;59.736;30.568;2023-12-29T09:16:12;9.45;;;2.33;;
71127;SDS011;59249;59.736;30.568;2023-12-29T09:18:52;6.07;;;1.93;;
71127;SDS011;59249;59.736;30.568;2023-12-29T09:21:55;7.60;;;2.90;;
71127;SDS011;59249;59.736;30.568;2023-12-29T09:24:29;8.93;;;2.45;;
71127;SDS011;59249;59.736;30.568;2023-12-29T09:27:01;9.93;;;2.47;;
71127;SDS011;59249;59.736;30.568;2023-12-29T09:29:36;11.02;;;2.83;;
71127;SDS011;59249;59.736;30.568;2023-12-29T09:32:10;7.07;;;2.60;;
71127;SDS011;59249;59.736;30.568;2023-12-29T09:34:46;11.25;;;3.00;;
71127;SDS011;59249;59.736;30.568;2023-12-29T09:37:34;9.27;;;3.45;;
71127;SDS011;59249;59.736;30.568;2023-12-29T09:40:08;8.45;;;2.50;;
71127;SDS011;59249;59.736;30.568;2023-12-29T09:42:53;6.00;;;2.10;;
71127;SDS011;59249;59.736;30.568;2023-12-29T09:45:24;8.27;;;2.27;;
71127;SDS011;59249;59.736;30.568;2023-12-29T09:48:08;9.45;;;3.05;;
71127;SDS011;59249;59.736;30.568;2023-12-29T09:50:47;9.23;;;3.20;;
71127;SDS011;59249;59.736;30.568;2023-12-29T09:53:19;8.30;;;3.20;;
71127;SDS011;59249;59.736;30.568;2023-12-29T09:55:52;8.60;;;2.95;;
71127;SDS011;59249;59.736;30.568;2023-12-29T09:58:41;8.77;;;2.67;;
71127;SDS011;59249;59.736;30.568;2023-12-29T10:01:17;8.85;;;2.47;;
71127;SDS011;59249;59.736;30.568;2023-12-29T10:03:56;7.78;;;2.33;;
71127;SDS011;59249;59.736;30.568;2023-12-29T10:06:27;8.57;;;3.05;;
71127;SDS011;59249;59.736;30.568;2023-12-29T10:09:07;8.38;;;2.30;;
71127;SDS011;59249;59.736;30.568;2023-12-29T10:11:43;14.17;;;2.90;;
71127;SDS011;59249;59.736;30.568;2023-12-29T10:14:21;9.43;;;2.80;;
71127;SDS011;59249;59.736;30.568;2023-12-29T10:17:09;10.00;;;2.58;;
71127;SDS011;59249;59.736;30.568;2023-12-29T10:19:54;9.73;;;2.72;;
71127;SDS011;59249;59.736;30.568;2023-12-29T10:22:37;8.68;;;2.72;;
71127;SDS011;59249;59.736;30.568;2023-12-29T10:25:25;10.17;;;3.43;;
71127;SDS011;59249;59.736;30.568;2023-12-29T10:27:56;9.32;;;3.30;;
71127;SDS011;59249;59.736;30.568;2023-12-29T10:30:26;8.13;;;2.40;;
71127;SDS011;59249;59.736;30.568;2023-12-29T10:33:01;8.85;;;2.40;;
71127;SDS011;59249;59.736;30.568;2023-12-29T10:35:34;10.18;;;3.30;;
71127;SDS011;59249;59.736;30.568;2023-12-29T10:38:11;9.80;;;3.37;;
71127;SDS011;59249;59.736;30.568;2023-12-29T10:40:41;9.90;;;2.92;;
71127;SDS011;59249;59.736;30.568;2023-12-29T10:43:10;8.18;;;2.22;;
71127;SDS011;59249;59.736;30.568;2023-12-29T10:45:40;9.90;;;2.88;;
71127;SDS011;59249;59.736;30.568;2023-12-29T10:48:13;9.38;;;2.88;;
71127;SDS011;59249;59.736;30.568;2023-12-29T10:50:51;8.47;;;2.73;;
71127;SDS011;59249;59.736;30.568;2023-12-29T10:53:21;9.80;;;3.45;;
71127;SDS011;59249;59.736;30.568;2023-12-29T10:55:50;6.82;;;2.55;;
71127;SDS011;59249;59.736;30.568;2023-12-29T10:58:19;8.95;;;2.78;;
71127;SDS011;59249;59.736;30.568;2023-12-29T11:00:48;9.60;;;3.15;;
71127;SDS011;59249;59.736;30.568;2023-12-29T11:03:17;7.93;;;2.53;;
71127;SDS011;59249;59.736;30.568;2023-12-29T11:05:46;8.60;;;2.25;;
71127;SDS011;59249;59.736;30.568;2023-12-29T11:08:16;9.85;;;2.78;;
71127;SDS011;59249;59.736;30.568;2023-12-29T11:10:49;7.50;;;2.20;;
71127;SDS011;59249;59.736;30.568;2023-12-29T11:13:18;7.78;;;2.65;;
71127;SDS011;59249;59.736;30.568;2023-12-29T11:15:48;9.60;;;2.10;;
71127;SDS011;59249;59.736;30.568;2023-12-29T11:18:24;9.40;;;2.08;;
71127;SDS011;59249;59.736;30.568;2023-12-29T11:20:57;9.82;;;2.28;;
71127;SDS011;59249;59.736;30.568;2023-12-29T11:23:27;6.32;;;1.75;;
71127;SDS011;59249;59.736;30.568;2023-12-29T11:25:58;6.15;;;1.73;;
71127;SDS011;59249;59.736;30.568;2023-12-29T11:28:28;7.43;;;2.20;;
71127;SDS011;59249;59.736;30.568;2023-12-29T11:30:57;5.63;;;1.63;;
71127;SDS011;59249;59.736;30.568;2023-12-29T11:33:29;6.93;;;1.80;;
71127;SDS011;59249;59.736;30.568;2023-12-29T11:36:09;6.20;;;1.98;;
71127;SDS011;59249;59.736;30.568;2023-12-29T11:39:02;6.45;;;2.20;;
71127;SDS011;59249;59.736;30.568;2023-12-29T11:42:02;6.13;;;1.60;;
71127;SDS011;59249;59.736;30.568;2023-12-29T11:44:49;5.88;;;1.27;;
71127;SDS011;59249;59.736;30.568;2023-12-29T11:47:34;6.60;;;1.80;;
71127;SDS011;59249;59.736;30.568;2023-12-29T11:50:16;4.90;;;1.30;;
71127;SDS011;59249;59.736;30.568;2023-12-29T11:53:01;4.28;;;1.45;;
71127;SDS011;59249;59.736;30.568;2023-12-29T11:55:34;7.47;;;1.93;;
71127;SDS011;59249;59.736;30.568;2023-12-29T12:01:04;5.00;;;1.30;;
71127;SDS011;59249;59.736;30.568;2023-12-29T12:03:36;5.43;;;1.83;;
71127;SDS011;59249;59.736;30.568;2023-12-29T12:06:07;7.28;;;2.03;;
71127;SDS011;59249;59.736;30.568;2023-12-29T12:08:45;6.43;;;1.83;;
71127;SDS011;59249;59.736;30.568;2023-12-29T12:11:41;6.53;;;1.83;;
71127;SDS011;59249;59.736;30.568;2023-12-29T12:17:28;7.63;;;1.98;;
71127;SDS011;59249;59.736;30.568;2023-12-29T12:20:13;7.40;;;2.38;;
71127;SDS011;59249;59.736;30.568;2023-12-29T12:23:01;7.93;;;2.27;;
71127;SDS011;59249;59.736;30.568;2023-12-29T12:25:56;5.90;;;1.55;;
71127;SDS011;59249;59.736;30.568;2023-12-29T12:28:31;7.20;;;2.05;;
71127;SDS011;59249;59.736;30.568;2023-12-29T12:31:08;4.65;;;1.80;;
71127;SDS011;59249;59.736;30.568;2023-12-29T12:33:39;7.30;;;1.60;;
71127;SDS011;59249;59.736;30.568;2023-12-29T12:36:22;6.23;;;1.57;;
71127;SDS011;59249;59.736;30.568;2023-12-29T12:38:54;7.30;;;1.83;;
71127;SDS011;59249;59.736;30.568;2023-12-29T12:41:27;6.25;;;1.55;;
71127;SDS011;59249;59.736;30.568;2023-12-29T12:43:59;6.88;;;1.83;;
71127;SDS011;59249;59.736;30.568;2023-12-29T12:46:50;7.63;;;2.35;;
71127;SDS011;59249;59.736;30.568;2023-12-29T12:49:44;8.33;;;2.37;;
71127;SDS011;59249;59.736;30.568;2023-12-29T12:52:17;7.18;;;1.98;;
71127;SDS011;59249;59.736;30.568;2023-12-29T12:57:41;4.75;;;1.83;;
71127;SDS011;59249;59.736;30.568;2023-12-29T13:00:10;7.97;;;1.77;;
71127;SDS011;59249;59.736;30.568;2023-12-29T13:02:45;7.20;;;1.80;;
71127;SDS011;59249;59.736;30.568;2023-12-29T13:05:15;5.07;;;1.20;;
71127;SDS011;59249;59.736;30.568;2023-12-29T13:07:45;6.47;;;1.60;;
71127;SDS011;59249;59.736;30.568;2023-12-29T13:10:14;6.43;;;1.42;;
71127;SDS011;59249;59.736;30.568;2023-12-29T13:12:51;6.30;;;1.27;;
71127;SDS011;59249;59.736;30.568;2023-12-29T13:15:21;5.47;;;1.67;;
71127;SDS011;59249;59.736;30.568;2023-12-29T13:17:53;8.80;;;4.05;;
71127;SDS011;59249;59.736;30.568;2023-12-29T13:20:25;7.15;;;2.15;;
71127;SDS011;59249;59.736;30.568;2023-12-29T13:22:59;3.60;;;0.95;;
71127;SDS011;59249;59.736;30.568;2023-12-29T13:25:33;5.32;;;1.20;;
71127;SDS011;59249;59.736;30.568;2023-12-29T13:28:08;4.50;;;1.40;;
71127;SDS011;59249;59.736;30.568;2023-12-29T13:30:48;4.75;;;1.60;;
71127;SDS011;59249;59.736;30.568;2023-12-29T13:33:23;5.82;;;1.65;;
71127;SDS011;59249;59.736;30.568;2023-12-29T13:36:10;5.35;;;1.42;;
71127;SDS011;59249;59.736;30.568;2023-12-29T13:39:06;3.78;;;1.30;;
71127;SDS011;59249;59.736;30.568;2023-12-29T13:41:51;3.70;;;0.90;;
71127;SDS011;59249;59.736;30.568;2023-12-29T13:44:22;7.60;;;1.77;;
71127;SDS011;59249;59.736;30.568;2023-12-29T13:47:00;6.47;;;1.52;;
71127;SDS011;59249;59.736;30.568;2023-12-29T13:49:40;4.15;;;1.05;;
71127;SDS011;59249;59.736;30.568;2023-12-29T13:52:10;4.35;;;1.27;;
71127;SDS011;59249;59.736;30.568;2023-12-29T13:54:42;5.93;;;1.70;;
71127;SDS011;59249;59.736;30.568;2023-12-29T13:57:11;5.32;;;1.80;;
71127;SDS011;59249;59.736;30.568;2023-12-29T13:59:44;4.72;;;1.00;;
71127;SDS011;59249;59.736;30.568;2023-12-29T14:02:20;4.43;;;1.20;;
71127;SDS011;59249;59.736;30.568;2023-12-29T14:08:23;4.90;;;1.07;;
71127;SDS011;59249;59.736;30.568;2023-12-29T14:11:06;4.65;;;1.58;;
71127;SDS011;59249;59.736;30.568;2023-12-29T14:13:41;3.92;;;1.23;;
71127;SDS011;59249;59.736;30.568;2023-12-29T14:16:44;6.00;;;1.67;;
71127;SDS011;59249;59.736;30.568;2023-12-29T14:19:18;5.40;;;1.33;;
71127;SDS011;59249;59.736;30.568;2023-12-29T14:21:57;5.43;;;1.53;;
71127;SDS011;59249;59.736;30.568;2023-12-29T14:24:29;4.97;;;1.52;;
71127;SDS011;59249;59.736;30.568;2023-12-29T14:26:59;7.50;;;1.80;;
71127;SDS011;59249;59.736;30.568;2023-12-29T14:29:40;6.55;;;2.20;;
71127;SDS011;59249;59.736;30.568;2023-12-29T14:32:13;8.00;;;1.90;;
71127;SDS011;59249;59.736;30.568;2023-12-29T14:34:45;5.37;;;1.77;;
71127;SDS011;59249;59.736;30.568;2023-12-29T14:37:23;6.50;;;2.03;;
71127;SDS011;59249;59.736;30.568;2023-12-29T14:39:55;7.03;;;1.67;;
71127;SDS011;59249;59.736;30.568;2023-12-29T14:42:30;7.10;;;1.98;;
71127;SDS011;59249;59.736;30.568;2023-12-29T14:45:02;7.05;;;2.17;;
71127;SDS011;59249;59.736;30.568;2023-12-29T14:47:43;5.80;;;1.77;;
71127;SDS011;59249;59.736;30.568;2023-12-29T14:50:13;6.03;;;1.60;;
71127;SDS011;59249;59.736;30.568;2023-12-29T14:52:44;11.55;;;3.08;;
71127;SDS011;59249;59.736;30.568;2023-12-29T14:55:13;7.75;;;2.10;;
71127;SDS011;59249;59.736;30.568;2023-12-29T14:57:44;5.97;;;2.20;;
71127;SDS011;59249;59.736;30.568;2023-12-29T15:00:13;4.70;;;1.77;;
71127;SDS011;59249;59.736;30.568;2023-12-29T15:02:43;7.70;;;2.00;;
71127;SDS011;59249;59.736;30.568;2023-12-29T15:05:12;4.55;;;1.58;;
71127;SDS011;59249;59.736;30.568;2023-12-29T15:07:42;6.90;;;2.35;;
71127;SDS011;59249;59.736;30.568;2023-12-29T15:10:13;7.10;;;1.98;;
71127;SDS011;59249;59.736;30.568;2023-12-29T15:12:42;8.37;;;2.40;;
71127;SDS011;59249;59.736;30.568;2023-12-29T15:15:11;6.50;;;1.77;;
71127;SDS011;59249;59.736;30.568;2023-12-29T15:17:40;8.40;;;2.30;;
71127;SDS011;59249;59.736;30.568;2023-12-29T15:20:09;4.57;;;1.55;;
71127;SDS011;59249;59.736;30.568;2023-12-29T15:22:39;7.20;;;1.73;;
71127;SDS011;59249;59.736;30.568;2023-12-29T15:25:11;5.03;;;1.70;;
71127;SDS011;59249;59.736;30.568;2023-12-29T15:27:40;5.10;;;1.90;;